createdAt,value
2018-03-23T00:00:39.177Z,93464.50
2018-03-23T00:03:06.836Z,93454.47
2018-03-23T00:05:34.437Z,93451.16
2018-03-23T00:08:02.735Z,93455.97
2018-03-23T00:10:30.367Z,93445.29
2018-03-23T00:12:58.018Z,93449.31
2018-03-23T00:15:25.621Z,93446.52
2018-03-23T00:17:53.212Z,93443.34
2018-03-23T00:20:20.851Z,93444.60
2018-03-23T00:22:48.497Z,93445.55
2018-03-23T00:25:16.111Z,93438.63
2018-03-23T00:27:43.743Z,93429.17
2018-03-23T00:30:11.425Z,93432.88
2018-03-23T00:32:39.056Z,93427.42
2018-03-23T00:35:06.720Z,93429.64
2018-03-23T00:37:34.388Z,93423.40
2018-03-23T00:40:02.303Z,93417.70
2018-03-23T00:42:29.941Z,93426.21
2018-03-23T00:44:57.653Z,93421.94
2018-03-23T00:47:25.266Z,93424.61
2018-03-23T00:49:52.855Z,93426.41
2018-03-23T00:52:20.484Z,93429.81
2018-03-23T00:54:48.117Z,93436.99
2018-03-23T00:57:15.757Z,93427.66
2018-03-23T00:59:43.402Z,93426.57
2018-03-23T01:02:11.107Z,93424.36
2018-03-23T01:04:38.736Z,93423.23
2018-03-23T01:07:06.412Z,93422.64
2018-03-23T01:09:34.659Z,93423.13
2018-03-23T01:12:02.403Z,93423.62
2018-03-23T01:14:30.078Z,93422.73
2018-03-23T01:16:57.706Z,93423.09
2018-03-23T01:19:25.456Z,93421.25
2018-03-23T01:21:53.163Z,93419.02
2018-03-23T01:24:20.809Z,93418.39
2018-03-23T01:26:48.486Z,93416.30
2018-03-23T01:29:16.181Z,93418.85
2018-03-23T01:31:43.777Z,93417.88
2018-03-23T01:34:11.423Z,93414.56
2018-03-23T01:36:39.051Z,93409.10
2018-03-23T01:39:06.914Z,93411.19
2018-03-23T01:41:34.576Z,93408.03
2018-03-23T01:44:02.259Z,93411.21
2018-03-23T01:46:29.896Z,93411.66
2018-03-23T01:48:57.482Z,93404.62
2018-03-23T01:51:25.183Z,93402.47
2018-03-23T01:53:52.784Z,93402.91
2018-03-23T01:56:20.483Z,93401.33
2018-03-23T01:58:48.139Z,93400.39
2018-03-23T02:01:15.807Z,93398.02
2018-03-23T02:03:43.418Z,93396.79
2018-03-23T02:06:11.071Z,93396.12
2018-03-23T02:08:38.705Z,93388.88
2018-03-23T02:11:06.427Z,93389.23
2018-03-23T02:13:34.029Z,93390.37
2018-03-23T02:16:01.678Z,93385.67
2018-03-23T02:18:29.584Z,93381.12
2018-03-23T02:20:57.334Z,93380.61
2018-03-23T02:23:25.006Z,93379.36
2018-03-23T02:25:52.693Z,93381.76
2018-03-23T02:28:20.347Z,93379.77
2018-03-23T02:30:48.070Z,93380.92
2018-03-23T02:33:15.668Z,93379.67
2018-03-23T02:35:43.268Z,93377.13
2018-03-23T02:38:10.909Z,93372.98
2018-03-23T02:40:38.518Z,93376.37
2018-03-23T02:43:06.157Z,93371.13
2018-03-23T02:45:33.781Z,93366.61
2018-03-23T02:48:01.450Z,93365.08
2018-03-23T02:50:29.103Z,93363.83
2018-03-23T02:52:56.764Z,93360.31
2018-03-23T02:55:27.389Z,93352.88
2018-03-23T02:57:55.075Z,93355.77
2018-03-23T03:00:22.663Z,93357.32
2018-03-23T03:02:50.413Z,93352.36
2018-03-23T03:05:18.052Z,93352.69
2018-03-23T03:07:45.643Z,93354.00
2018-03-23T03:10:13.270Z,93353.17
2018-03-23T03:12:40.905Z,93349.64
2018-03-23T03:15:08.597Z,93354.67
2018-03-23T03:17:36.486Z,93356.50
2018-03-23T03:20:04.151Z,93346.16
2018-03-23T03:22:32.214Z,93350.50
2018-03-23T03:24:59.972Z,93352.41
2018-03-23T03:27:27.721Z,93352.45
2018-03-23T03:29:55.398Z,93350.59
2018-03-23T03:32:23.477Z,93342.34
2018-03-23T03:34:51.509Z,93338.72
2018-03-23T03:37:19.223Z,93344.81
2018-03-23T03:39:47.691Z,93344.22
2018-03-23T03:42:15.434Z,93345.80
2018-03-23T03:44:43.751Z,93340.54
2018-03-23T03:47:11.618Z,93341.25
2018-03-23T03:49:39.581Z,93341.34
2018-03-23T03:52:07.384Z,93340.19
2018-03-23T03:54:35.728Z,93339.21
2018-03-23T03:57:03.320Z,93331.39
2018-03-23T03:59:31.728Z,93333.35
2018-03-23T04:02:00.057Z,93325.68
2018-03-23T04:04:28.056Z,93328.63
2018-03-23T04:06:55.662Z,93327.53
2018-03-23T04:09:23.642Z,93329.61
2018-03-23T04:11:51.398Z,93325.68
2018-03-23T04:14:19.088Z,93324.86
2018-03-23T04:16:46.796Z,93325.31
2018-03-23T04:19:15.516Z,93324.47
2018-03-23T04:21:43.163Z,93322.15
2018-03-23T04:24:11.413Z,93327.84
2018-03-23T04:26:39.060Z,93323.30
2018-03-23T04:29:06.889Z,93320.56
2018-03-23T04:31:34.485Z,93319.77
2018-03-23T04:34:02.187Z,93318.41
2018-03-23T04:36:29.878Z,93310.11
2018-03-23T04:38:57.542Z,93311.23
2018-03-23T04:41:25.490Z,93310.95
2018-03-23T04:43:53.451Z,93300.33
2018-03-23T04:46:21.220Z,93296.86
2018-03-23T04:48:49.032Z,93291.36
2018-03-23T04:51:16.663Z,93285.62
2018-03-23T04:53:44.456Z,93284.48
2018-03-23T04:56:12.109Z,93282.06
2018-03-23T04:58:40.906Z,93287.38
2018-03-23T05:01:08.827Z,93281.73
2018-03-23T05:03:36.600Z,93278.30
2018-03-23T05:06:04.246Z,93278.77
2018-03-23T05:08:32.110Z,93271.15
2018-03-23T05:11:00.009Z,93269.25
2018-03-23T05:13:27.854Z,93276.52
2018-03-23T05:15:55.726Z,93276.75
2018-03-23T05:18:23.334Z,93267.81
2018-03-23T05:20:51.060Z,93270.19
2018-03-23T05:23:18.929Z,93257.84
2018-03-23T05:25:46.675Z,93264.67
2018-03-23T05:28:14.358Z,93264.94
2018-03-23T05:30:42.693Z,93265.33
2018-03-23T05:33:10.352Z,93263.92
2018-03-23T05:35:37.964Z,93266.65
2018-03-23T05:38:06.093Z,93263.61
2018-03-23T05:40:33.718Z,93263.61
2018-03-23T05:43:01.328Z,93261.66
2018-03-23T05:45:29.141Z,93251.65
2018-03-23T05:47:56.766Z,93258.17
2018-03-23T05:50:24.422Z,93257.38
2018-03-23T05:52:52.031Z,93249.65
2018-03-23T05:55:19.624Z,93242.59
2018-03-23T05:57:47.360Z,93242.28
2018-03-23T06:00:15.040Z,93242.45
2018-03-23T06:02:42.761Z,93242.30
2018-03-23T06:05:10.403Z,93239.89
2018-03-23T06:07:38.027Z,93235.66
2018-03-23T06:10:05.690Z,93230.02
2018-03-23T06:12:33.285Z,93227.95
2018-03-23T06:15:00.931Z,93226.37
2018-03-23T06:17:28.626Z,93230.84
2018-03-23T06:19:56.241Z,93238.88
2018-03-23T06:22:23.907Z,93234.71
2018-03-23T06:24:51.549Z,93238.31
2018-03-23T06:27:19.201Z,93235.17
2018-03-23T06:29:46.847Z,93238.70
2018-03-23T06:32:14.481Z,93236.75
2018-03-23T06:34:42.151Z,93235.47
2018-03-23T06:37:09.757Z,93236.72
2018-03-23T06:39:37.351Z,93229.11
2018-03-23T06:42:05.083Z,93227.80
2018-03-23T06:44:32.929Z,93222.70
2018-03-23T06:47:00.557Z,93222.52
2018-03-23T06:49:28.302Z,93220.20
2018-03-23T06:51:57.061Z,93221.05
2018-03-23T06:54:24.870Z,93218.55
2018-03-23T06:56:52.530Z,93217.78
2018-03-23T06:59:20.188Z,93221.34
2018-03-23T07:01:47.904Z,93225.39
2018-03-23T07:04:15.575Z,93220.60
2018-03-23T07:06:43.294Z,93217.78
2018-03-23T07:09:10.924Z,93222.05
2018-03-23T07:11:38.551Z,93222.11
2018-03-23T07:14:06.214Z,93213.35
2018-03-23T07:16:33.965Z,93208.19
2018-03-23T07:19:01.723Z,93217.44
2018-03-23T07:21:29.423Z,93211.73
2018-03-23T07:23:57.087Z,93224.56
2018-03-23T07:26:24.791Z,93224.64
2018-03-23T07:28:52.416Z,93220.91
2018-03-23T07:31:20.154Z,93229.88
2018-03-23T07:33:47.814Z,93236.00
2018-03-23T07:36:15.440Z,93238.45
2018-03-23T07:38:43.361Z,93239.54
2018-03-23T07:41:10.992Z,93242.91
2018-03-23T07:43:40.141Z,93240.48
2018-03-23T07:46:07.755Z,93241.03
2018-03-23T07:48:35.370Z,93239.19
2018-03-23T07:51:03.074Z,93234.81
2018-03-23T07:53:30.779Z,93234.75
2018-03-23T07:55:58.369Z,93232.52
2018-03-23T07:58:26.051Z,93235.30
2018-03-23T08:00:53.726Z,93233.83
2018-03-23T08:03:21.367Z,93235.09
2018-03-23T08:05:49.100Z,93232.16
2018-03-23T08:08:16.917Z,93239.23
2018-03-23T08:10:44.576Z,93233.14
2018-03-23T08:13:12.258Z,93236.69
2018-03-23T08:15:39.880Z,93240.73
2018-03-23T08:18:07.502Z,93244.59
2018-03-23T08:20:35.127Z,93245.03
2018-03-23T08:23:02.869Z,93246.10
2018-03-23T08:25:31.522Z,93237.08
2018-03-23T08:27:59.216Z,93234.90
2018-03-23T08:30:26.983Z,93233.69
2018-03-23T08:32:54.565Z,93234.08
2018-03-23T08:35:22.207Z,93228.81
2018-03-23T08:37:49.898Z,93223.69
2018-03-23T08:40:17.493Z,93216.20
2018-03-23T08:42:45.307Z,93224.39
2018-03-23T08:45:12.973Z,93223.40
2018-03-23T08:47:40.672Z,93223.22
2018-03-23T08:50:08.311Z,93226.28
2018-03-23T08:52:37.436Z,93222.72
2018-03-23T08:55:05.091Z,93228.64
2018-03-23T08:57:32.747Z,93224.50
2018-03-23T09:00:00.419Z,93228.55
2018-03-23T09:02:28.072Z,93225.69
2018-03-23T09:04:55.674Z,93227.78
2018-03-23T09:07:23.311Z,93224.60
2018-03-23T09:09:50.974Z,93226.48
2018-03-23T09:12:18.578Z,93218.30
2018-03-23T09:14:46.230Z,93222.44
2018-03-23T09:17:13.899Z,93212.56
2018-03-23T09:19:41.506Z,93218.80
2018-03-23T09:22:09.141Z,93216.31
2018-03-23T09:24:36.821Z,93209.20
2018-03-23T09:27:04.439Z,93214.27
2018-03-23T09:29:32.097Z,93204.67
2018-03-23T09:31:59.872Z,93205.66
2018-03-23T09:34:27.557Z,93204.38
2018-03-23T09:36:55.217Z,93202.20
2018-03-23T09:39:22.870Z,93194.81
2018-03-23T09:41:50.603Z,93191.26
2018-03-23T09:44:18.216Z,93192.55
2018-03-23T09:46:45.874Z,93187.02
2018-03-23T09:49:13.480Z,93190.55
2018-03-23T09:51:41.150Z,93189.67
2018-03-23T09:54:08.805Z,93191.42
2018-03-23T09:56:36.420Z,93190.33
2018-03-23T09:59:04.074Z,93186.70
2018-03-23T10:01:31.666Z,93185.52
2018-03-23T10:03:59.361Z,93181.96
2018-03-23T10:06:28.159Z,93182.95
2018-03-23T10:08:55.842Z,93178.68
2018-03-23T10:11:23.459Z,93179.80
2018-03-23T10:13:51.075Z,93169.59
2018-03-23T10:16:18.752Z,93176.02
2018-03-23T10:18:46.428Z,93174.04
2018-03-23T10:21:14.161Z,93172.75
2018-03-23T10:23:41.809Z,93171.34
2018-03-23T10:26:09.599Z,93167.19
2018-03-23T10:28:37.342Z,93168.66
2018-03-23T10:31:05.292Z,93165.14
2018-03-23T10:33:33.784Z,93166.57
2018-03-23T10:36:01.478Z,93163.26
2018-03-23T10:38:29.136Z,93157.55
2018-03-23T10:40:56.741Z,93158.20
2018-03-23T10:43:24.576Z,93151.55
2018-03-23T10:45:52.823Z,93152.24
2018-03-23T10:48:20.512Z,93147.13
2018-03-23T10:50:48.406Z,93148.55
2018-03-23T10:53:16.102Z,93141.30
2018-03-23T10:55:43.790Z,93135.78
2018-03-23T10:58:11.484Z,93128.68
2018-03-23T11:00:44.684Z,93119.36
2018-03-23T11:03:12.358Z,93126.69
2018-03-23T11:05:40.052Z,93122.94
2018-03-23T11:08:07.735Z,93108.31
2018-03-23T11:10:35.384Z,93113.88
2018-03-23T11:13:03.027Z,93105.44
2018-03-23T11:15:30.668Z,93107.42
2018-03-23T11:17:58.392Z,93099.52
2018-03-23T11:20:26.043Z,93095.50
2018-03-23T11:22:53.667Z,93092.80
2018-03-23T11:25:21.328Z,93084.09
2018-03-23T11:27:49.014Z,93074.83
2018-03-23T11:30:16.673Z,93070.40
2018-03-23T11:32:44.309Z,93068.06
2018-03-23T11:35:11.961Z,93065.33
2018-03-23T11:37:39.606Z,93067.52
2018-03-23T11:40:07.318Z,93063.34
2018-03-23T11:42:35.015Z,93058.19
2018-03-23T11:45:02.707Z,93051.13
2018-03-23T11:47:30.327Z,93054.63
2018-03-23T11:49:58.960Z,93045.31
2018-03-23T11:52:26.667Z,93049.53
2018-03-23T11:54:54.348Z,93031.73
2018-03-23T11:57:22.014Z,93023.11
2018-03-23T11:59:49.758Z,93023.32
2018-03-23T12:02:17.508Z,93017.13
2018-03-23T12:04:45.118Z,93020.31
2018-03-23T12:07:12.777Z,93015.28
2018-03-23T12:09:40.424Z,93008.71
2018-03-23T12:12:08.097Z,93003.44
2018-03-23T12:14:35.743Z,92994.41
2018-03-23T12:17:03.442Z,92993.42
2018-03-23T12:19:31.063Z,92993.48
2018-03-23T12:21:58.774Z,92983.73
2018-03-23T12:24:26.684Z,92988.31
2018-03-23T12:26:54.309Z,92985.23
2018-03-23T12:29:22.059Z,92989.60
2018-03-23T12:31:49.666Z,92987.05
2018-03-23T12:34:17.406Z,92989.87
2018-03-23T12:36:45.574Z,92982.30
2018-03-23T12:39:14.112Z,92975.97
2018-03-23T12:41:41.803Z,92967.63
2018-03-23T12:44:09.508Z,92977.11
2018-03-23T12:46:37.304Z,92969.57
2018-03-23T12:49:05.008Z,92965.41
2018-03-23T12:51:32.625Z,92964.42
2018-03-23T12:54:00.243Z,92961.42
2018-03-23T12:56:27.965Z,92965.03
2018-03-23T12:58:55.578Z,92955.19
2018-03-23T13:01:23.303Z,92961.45
2018-03-23T13:03:50.942Z,92951.28
2018-03-23T13:06:18.609Z,92955.10
2018-03-23T13:08:46.383Z,92951.74
2018-03-23T13:11:14.073Z,92947.52
2018-03-23T13:13:41.721Z,92942.98
2018-03-23T13:16:09.453Z,92949.70
2018-03-23T13:18:37.135Z,92948.80
2018-03-23T13:21:04.775Z,92942.91
2018-03-23T13:23:32.477Z,92939.22
2018-03-23T13:26:00.215Z,92944.63
2018-03-23T13:28:27.861Z,92939.50
2018-03-23T13:30:55.505Z,92942.44
2018-03-23T13:33:23.158Z,92939.58
2018-03-23T13:35:50.760Z,92929.96
2018-03-23T13:38:18.452Z,92948.45
2018-03-23T13:40:46.072Z,92946.72
2018-03-23T13:43:13.936Z,92946.10
2018-03-23T13:45:41.824Z,92948.27
2018-03-23T13:48:09.640Z,92946.63
2018-03-23T13:50:37.536Z,92947.28
2018-03-23T13:53:05.221Z,92944.52
2018-03-23T13:55:32.842Z,92940.33
2018-03-23T13:58:00.541Z,92944.81
2018-03-23T14:00:33.831Z,92942.36
2018-03-23T14:03:01.529Z,92946.91
2018-03-23T14:05:29.280Z,92938.78
2018-03-23T14:07:56.943Z,92940.75
2018-03-23T14:10:24.562Z,92940.63
2018-03-23T14:12:53.494Z,92947.95
2018-03-23T14:15:21.339Z,92942.87
2018-03-23T14:17:49.343Z,92943.30
2018-03-23T14:20:16.971Z,92944.97
2018-03-23T14:22:44.679Z,92947.19
2018-03-23T14:25:12.307Z,92944.36
2018-03-23T14:27:39.979Z,92946.25
2018-03-23T14:30:07.636Z,92944.67
2018-03-23T14:32:35.338Z,92945.52
2018-03-23T14:35:03.023Z,92940.50
2018-03-23T14:37:30.651Z,92942.91
2018-03-23T14:39:58.380Z,92943.23
2018-03-23T14:42:26.021Z,92945.20
2018-03-23T14:44:53.674Z,92948.55
2018-03-23T14:47:21.291Z,92944.33
2018-03-23T14:49:48.941Z,92941.92
2018-03-23T14:52:16.529Z,92936.38
2018-03-23T14:54:44.331Z,92937.38
2018-03-23T14:57:11.955Z,92938.22
2018-03-23T14:59:39.584Z,92937.62
2018-03-23T15:02:07.307Z,92948.05
2018-03-23T15:04:34.972Z,92951.67
2018-03-23T15:07:02.671Z,92948.56
2018-03-23T15:09:30.251Z,92944.50
2018-03-23T15:11:57.899Z,92941.98
2018-03-23T15:14:32.679Z,92940.66
2018-03-23T15:17:00.363Z,92946.83
2018-03-23T15:19:27.968Z,92940.12
2018-03-23T15:21:55.621Z,92942.41
2018-03-23T15:24:23.223Z,92944.02
2018-03-23T15:26:50.897Z,92941.48
2018-03-23T15:29:18.534Z,92936.20
2018-03-23T15:31:46.183Z,92932.58
2018-03-23T15:34:13.906Z,92933.57
2018-03-23T15:36:41.516Z,92933.64
2018-03-23T15:39:09.287Z,92932.28
2018-03-23T15:41:36.907Z,92938.30
2018-03-23T15:44:04.548Z,92938.67
2018-03-23T15:46:34.095Z,92937.75
2018-03-23T15:49:01.705Z,92943.59
2018-03-23T15:51:29.411Z,92944.86
2018-03-23T15:53:57.091Z,92949.34
2018-03-23T15:56:24.790Z,92946.77
2018-03-23T15:58:52.409Z,92949.16
2018-03-23T16:01:20.119Z,92946.33
2018-03-23T16:03:47.896Z,92949.37
2018-03-23T16:06:15.519Z,92949.75
2018-03-23T16:08:43.240Z,92959.16
2018-03-23T16:11:10.935Z,92958.31
2018-03-23T16:13:38.710Z,92963.84
2018-03-23T16:16:06.391Z,92965.16
2018-03-23T16:18:34.102Z,92968.20
2018-03-23T16:21:01.800Z,92967.92
2018-03-23T16:23:29.475Z,92977.53
2018-03-23T16:25:57.159Z,92980.58
2018-03-23T16:28:24.932Z,92978.43
2018-03-23T16:30:53.643Z,92975.42
2018-03-23T16:33:21.348Z,92975.16
2018-03-23T16:35:48.982Z,92977.28
2018-03-23T16:38:18.155Z,92975.61
2018-03-23T16:40:46.371Z,92982.77
2018-03-23T16:43:14.062Z,92984.93
2018-03-23T16:45:42.041Z,92987.44
2018-03-23T16:48:10.317Z,92990.89
2018-03-23T16:50:37.948Z,92988.73
2018-03-23T16:53:05.655Z,92987.84
2018-03-23T16:55:33.432Z,92989.91
2018-03-23T16:58:01.089Z,92985.72
2018-03-23T17:00:28.774Z,92994.84
2018-03-23T17:02:56.613Z,92992.82
2018-03-23T17:05:24.386Z,92994.59
2018-03-23T17:07:52.093Z,92990.44
2018-03-23T17:10:20.989Z,92991.70
2018-03-23T17:12:48.710Z,92992.50
2018-03-23T17:15:16.477Z,93000.00
2018-03-23T17:17:44.225Z,92996.47
2018-03-23T17:20:11.966Z,92996.61
2018-03-23T17:22:39.684Z,92993.16
2018-03-23T17:25:07.371Z,92994.44
2018-03-23T17:27:35.105Z,92996.41
2018-03-23T17:30:02.770Z,92994.05
2018-03-23T17:32:30.433Z,92998.39
2018-03-23T17:34:58.114Z,92990.51
2018-03-23T17:37:25.780Z,92987.75
2018-03-23T17:39:53.490Z,92988.84
2018-03-23T17:42:21.122Z,92989.37
2018-03-23T17:44:48.798Z,92982.08
2018-03-23T17:47:16.508Z,92979.70
2018-03-23T17:49:44.116Z,92981.58
2018-03-23T17:52:11.803Z,92976.05
2018-03-23T17:54:39.498Z,92970.13
2018-03-23T17:57:07.237Z,92958.29
2018-03-23T17:59:34.890Z,92957.41
2018-03-23T18:02:02.572Z,92963.63
2018-03-23T18:04:30.212Z,92970.53
2018-03-23T18:06:58.156Z,92976.36
2018-03-23T18:09:25.781Z,92976.80
2018-03-23T18:11:53.544Z,92974.92
2018-03-23T18:14:22.295Z,92976.01
2018-03-23T18:16:49.964Z,92980.35
2018-03-23T18:19:17.683Z,92976.02
2018-03-23T18:21:45.612Z,92973.16
2018-03-23T18:24:13.281Z,92982.42
2018-03-23T18:26:40.979Z,92981.14
2018-03-23T18:29:08.568Z,92982.22
2018-03-23T18:31:36.274Z,92979.66
2018-03-23T18:34:03.925Z,92983.41
2018-03-23T18:36:31.745Z,92979.27
2018-03-23T18:38:59.392Z,92983.84
2018-03-23T18:41:27.115Z,92984.03
2018-03-23T18:43:54.815Z,92983.34
2018-03-23T18:46:23.067Z,92986.86
2018-03-23T18:48:50.715Z,92983.31
2018-03-23T18:51:18.416Z,92986.77
2018-03-23T18:53:46.121Z,92997.02
2018-03-23T18:56:13.840Z,92999.42
2018-03-23T18:58:41.521Z,92999.81
2018-03-23T19:01:09.556Z,92995.86
2018-03-23T19:03:37.230Z,93004.64
2018-03-23T19:06:05.050Z,92996.16
2018-03-23T19:08:32.801Z,93001.28
2018-03-23T19:11:00.497Z,93005.72
2018-03-23T19:13:28.156Z,93008.28
2018-03-23T19:15:55.850Z,93001.29
2018-03-23T19:18:23.671Z,92998.33
2018-03-23T19:20:51.387Z,92996.06
2018-03-23T19:23:19.173Z,92989.27
2018-03-23T19:25:46.886Z,92995.47
2018-03-23T19:28:14.585Z,92988.97
2018-03-23T19:30:42.989Z,92994.19
2018-03-23T19:33:10.780Z,92994.58
2018-03-23T19:35:39.385Z,92988.08
2018-03-23T19:38:07.167Z,92989.66
2018-03-23T19:40:34.909Z,92986.20
2018-03-23T19:43:02.650Z,92985.22
2018-03-23T19:45:30.674Z,92989.95
2018-03-23T19:47:58.357Z,92993.30
2018-03-23T19:50:26.091Z,92990.73
2018-03-23T19:52:53.876Z,92992.91
2018-03-23T19:55:21.572Z,92997.94
2018-03-23T19:57:49.332Z,92996.16
2018-03-23T20:00:17.093Z,92995.38
2018-03-23T20:02:44.872Z,93001.78
2018-03-23T20:05:12.644Z,93000.70
2018-03-23T20:07:40.375Z,92991.53
2018-03-23T20:10:09.355Z,92990.15
2018-03-23T20:12:37.058Z,92993.70
2018-03-23T20:15:05.684Z,92993.30
2018-03-23T20:17:39.123Z,92991.23
2018-03-23T20:20:12.290Z,92993.82
2018-03-23T20:22:40.423Z,92984.06
2018-03-23T20:25:08.273Z,92984.45
2018-03-23T20:27:41.748Z,92985.64
2018-03-23T20:30:09.415Z,92987.61
2018-03-23T20:32:37.132Z,92989.28
2018-03-23T20:35:04.923Z,92986.72
2018-03-23T20:37:32.776Z,92986.62
2018-03-23T20:40:01.885Z,92998.05
2018-03-23T20:42:29.580Z,92991.05
2018-03-23T20:44:57.317Z,92990.48
2018-03-23T20:47:25.002Z,92990.75
2018-03-23T20:49:52.729Z,92995.78
2018-03-23T20:52:20.440Z,92980.91
2018-03-23T20:54:48.176Z,92988.39
2018-03-23T20:57:15.951Z,92982.09
2018-03-23T20:59:45.484Z,92987.91
2018-03-23T21:02:13.273Z,92981.52
2018-03-23T21:04:41.748Z,92979.02
2018-03-23T21:07:09.509Z,92979.63
2018-03-23T21:09:37.343Z,92973.03
2018-03-23T21:12:05.210Z,92971.25
2018-03-23T21:14:32.866Z,92974.61
2018-03-23T21:17:00.542Z,92966.02
2018-03-23T21:19:28.268Z,92967.78
2018-03-23T21:21:55.954Z,92969.36
2018-03-23T21:24:23.642Z,92964.44
2018-03-23T21:26:52.333Z,92964.73
2018-03-23T21:29:20.022Z,92966.51
2018-03-23T21:31:47.732Z,92965.91
2018-03-23T21:34:15.869Z,92963.06
2018-03-23T21:36:43.555Z,92967.39
2018-03-23T21:39:11.148Z,92968.77
2018-03-23T21:41:38.745Z,92962.77
2018-03-23T21:44:06.454Z,92968.18
2018-03-23T21:46:34.152Z,92961.20
2018-03-23T21:49:01.898Z,92965.05
2018-03-23T21:51:29.657Z,92962.09
2018-03-23T21:53:57.317Z,92960.91
2018-03-23T21:56:24.979Z,92964.84
2018-03-23T21:58:52.792Z,92955.58
2018-03-23T22:01:20.477Z,92957.05
2018-03-23T22:03:48.134Z,92948.69
2018-03-23T22:06:15.818Z,92958.93
2018-03-23T22:08:43.454Z,92956.47
2018-03-23T22:11:11.086Z,92950.56
2018-03-23T22:13:38.746Z,92953.41
2018-03-23T22:16:06.388Z,92951.73
2018-03-23T22:18:33.997Z,92948.20
2018-03-23T22:21:01.619Z,92942.28
2018-03-23T22:23:30.057Z,92934.89
2018-03-23T22:25:57.722Z,92941.30
2018-03-23T22:28:25.326Z,92941.88
2018-03-23T22:30:52.977Z,92942.50
2018-03-23T22:33:21.182Z,92941.89
2018-03-23T22:35:50.809Z,92937.46
2018-03-23T22:38:18.624Z,92946.14
2018-03-23T22:40:46.572Z,92945.16
2018-03-23T22:43:14.882Z,92941.70
2018-03-23T22:45:42.637Z,92940.22
2018-03-23T22:48:10.789Z,92942.08
2018-03-23T22:50:38.744Z,92940.89
2018-03-23T22:53:06.471Z,92943.06
2018-03-23T22:55:34.152Z,92938.45
2018-03-23T22:58:03.098Z,92930.17
2018-03-23T23:00:30.888Z,92930.86
2018-03-23T23:02:59.693Z,92930.96
2018-03-23T23:05:27.516Z,92929.59
2018-03-23T23:07:55.852Z,92928.01
2018-03-23T23:10:25.248Z,92933.92
2018-03-23T23:12:53.784Z,92923.48
2018-03-23T23:15:21.788Z,92931.75
2018-03-23T23:17:49.541Z,92924.27
2018-03-23T23:20:17.231Z,92916.97
2018-03-23T23:22:44.834Z,92925.34
2018-03-23T23:25:12.497Z,92917.47
2018-03-23T23:27:40.113Z,92914.51
2018-03-23T23:30:07.745Z,92918.45
2018-03-23T23:32:35.387Z,92913.44
2018-03-23T23:35:03.074Z,92909.30
2018-03-23T23:37:30.814Z,92912.06
2018-03-23T23:39:58.401Z,92906.03
2018-03-23T23:42:26.055Z,92906.82
2018-03-23T23:44:53.654Z,92903.10
2018-03-23T23:47:21.284Z,92903.69
2018-03-23T23:49:48.959Z,92899.73
2018-03-23T23:52:16.568Z,92897.09
2018-03-23T23:54:44.218Z,92898.27
2018-03-23T23:57:12.784Z,92896.20
2018-03-23T23:59:40.432Z,92897.87
